createdAt,value
2023-02-18T00:00:55.124Z,98369.81
2023-02-18T00:01:58.171Z,98361.13
2023-02-18T00:03:01.193Z,98364.59
2023-02-18T00:04:04.392Z,98370.37
2023-02-18T00:05:07.359Z,98368.78
2023-02-18T00:06:23.718Z,98369.66
2023-02-18T00:07:27.078Z,98362.16
2023-02-18T00:08:30.001Z,98362.28
2023-02-18T00:09:33.426Z,98367.66
2023-02-18T00:10:36.433Z,98365.03
2023-02-18T00:11:39.641Z,98360.16
2023-02-18T00:12:43.006Z,98356.41
2023-02-18T00:13:57.338Z,98362.47
2023-02-18T00:15:00.503Z,98357.03
2023-02-18T00:16:05.336Z,98355.59
2023-02-18T00:17:08.486Z,98343.44
2023-02-18T00:18:11.429Z,98358.22
2023-02-18T00:19:19.504Z,98354.31
2023-02-18T00:20:22.798Z,98345.38
2023-02-18T00:21:26.113Z,98334.66
2023-02-18T00:22:29.488Z,98345.81
2023-02-18T00:23:33.053Z,98338.87
2023-02-18T00:24:36.159Z,98336.84
2023-02-18T00:25:39.129Z,98334.97
2023-02-18T00:26:42.901Z,98338.87
2023-02-18T00:27:46.196Z,98338.31
2023-02-18T00:28:50.028Z,98333.09
2023-02-18T00:29:53.056Z,98342.62
2023-02-18T00:30:56.496Z,98344.53
2023-02-18T00:31:59.728Z,98334.09
2023-02-18T00:33:03.029Z,98336.28
2023-02-18T00:34:06.657Z,98334.81
2023-02-18T00:35:09.565Z,98336.41
2023-02-18T00:36:16.833Z,98331.22
2023-02-18T00:37:19.919Z,98329.63
2023-02-18T00:38:25.819Z,98330.78
2023-02-18T00:39:29.213Z,98330.06
2023-02-18T00:40:32.240Z,98328.62
2023-02-18T00:41:36.417Z,98330.94
2023-02-18T00:42:39.434Z,98328.62
2023-02-18T00:43:43.322Z,98332.69
2023-02-18T00:44:46.371Z,98338.00
2023-02-18T00:45:49.442Z,98333.69
2023-02-18T00:46:53.662Z,98329.50
2023-02-18T00:47:56.702Z,98336.12
2023-02-18T00:48:59.813Z,98328.03
2023-02-18T00:50:02.849Z,98328.47
2023-02-18T00:51:07.501Z,98334.97
2023-02-18T00:52:10.504Z,98331.66
2023-02-18T00:53:13.915Z,98334.13
2023-02-18T00:54:17.109Z,98327.03
2023-02-18T00:55:20.098Z,98330.34
2023-02-18T00:56:23.862Z,98324.72
2023-02-18T00:57:26.776Z,98336.28
2023-02-18T00:58:30.140Z,98318.91
2023-02-18T00:59:33.590Z,98317.03
2023-02-18T01:00:37.019Z,98315.87
2023-02-18T01:01:40.198Z,98316.87
2023-02-18T01:02:44.219Z,98315.00
2023-02-18T01:03:47.760Z,98306.59
2023-02-18T01:04:50.762Z,98314.00
2023-02-18T01:05:54.064Z,98318.78
2023-02-18T01:06:56.999Z,98308.63
2023-02-18T01:08:00.219Z,98316.59
2023-02-18T01:09:03.270Z,98309.78
2023-02-18T01:10:06.996Z,98310.66
2023-02-18T01:11:11.627Z,98298.94
2023-02-18T01:12:14.656Z,98310.38
2023-02-18T01:13:18.050Z,98297.62
2023-02-18T01:14:20.954Z,98306.72
2023-02-18T01:15:24.204Z,98301.09
2023-02-18T01:16:27.262Z,98306.59
2023-02-18T01:17:31.002Z,98303.66
2023-02-18T01:18:33.996Z,98308.87
2023-02-18T01:19:37.026Z,98315.81
2023-02-18T01:20:42.055Z,98304.94
2023-02-18T01:21:45.162Z,98311.75
2023-02-18T01:22:48.429Z,98306.53
2023-02-18T01:23:51.396Z,98306.66
2023-02-18T01:24:54.389Z,98302.88
2023-02-18T01:25:58.979Z,98304.47
2023-02-18T01:27:02.034Z,98303.28
2023-02-18T01:28:07.120Z,98303.28
2023-02-18T01:29:10.080Z,98301.41
2023-02-18T01:30:15.899Z,98307.34
2023-02-18T01:31:18.976Z,98301.94
2023-02-18T01:32:22.191Z,98304.13
2023-02-18T01:33:25.196Z,98291.66
2023-02-18T01:34:28.677Z,98293.53
2023-02-18T01:35:31.752Z,98300.59
2023-02-18T01:36:35.065Z,98292.81
2023-02-18T01:37:38.153Z,98285.53
2023-02-18T01:38:41.344Z,98287.72
2023-02-18T01:39:44.427Z,98278.59
2023-02-18T01:40:54.053Z,98292.66
2023-02-18T01:41:57.320Z,98283.25
2023-02-18T01:43:00.895Z,98279.75
2023-02-18T01:44:24.946Z,98287.00
2023-02-18T01:45:34.078Z,98287.56
2023-02-18T01:46:37.263Z,98274.38
2023-02-18T01:47:40.687Z,98294.25
2023-02-18T01:48:58.424Z,98282.59
2023-02-18T01:50:01.416Z,98289.50
2023-02-18T01:51:07.015Z,98285.09
2023-02-18T01:52:16.096Z,98293.03
2023-02-18T01:53:29.427Z,98289.25
2023-02-18T01:54:36.335Z,98278.94
2023-02-18T01:55:39.700Z,98286.63
2023-02-18T01:57:18.586Z,98271.09
2023-02-18T01:58:22.149Z,98304.59
2023-02-18T01:59:31.334Z,98288.13
2023-02-18T02:00:34.599Z,98283.22
2023-02-18T02:01:39.747Z,98290.03
2023-02-18T02:02:45.784Z,98276.13
2023-02-18T02:03:48.817Z,98284.78
2023-02-18T02:04:52.536Z,98281.88
2023-02-18T02:05:55.699Z,98272.78
2023-02-18T02:06:58.863Z,98277.09
2023-02-18T02:08:03.541Z,98278.94
2023-02-18T02:09:09.992Z,98286.34
2023-02-18T02:10:15.899Z,98278.22
2023-02-18T02:11:40.046Z,98267.34
2023-02-18T02:13:24.605Z,98268.66
2023-02-18T02:14:36.269Z,98267.12
2023-02-18T02:15:46.258Z,98272.78
2023-02-18T02:17:05.663Z,98280.31
2023-02-18T02:18:39.123Z,98270.47
2023-02-18T02:19:59.974Z,98263.78
2023-02-18T02:21:41.057Z,98269.41
2023-02-18T02:23:27.939Z,98270.47
2023-02-18T02:24:39.822Z,98269.03
2023-02-18T02:26:10.151Z,98282.09
2023-02-18T02:27:20.816Z,98266.66
2023-02-18T02:29:08.870Z,98262.00
2023-02-18T02:30:41.010Z,98277.22
2023-02-18T02:32:15.373Z,98262.13
2023-02-18T02:33:39.854Z,98257.34
2023-02-18T02:34:58.735Z,98259.03
2023-02-18T02:36:15.113Z,98270.53
2023-02-18T02:37:56.222Z,98255.81
2023-02-18T02:39:25.296Z,98250.78
2023-02-18T02:40:55.655Z,98260.22
2023-02-18T02:42:03.776Z,98258.31
2023-02-18T02:43:26.594Z,98264.66
2023-02-18T02:44:55.818Z,98265.88
2023-02-18T02:46:19.110Z,98257.25
2023-02-18T02:47:33.826Z,98260.47
2023-02-18T02:48:46.256Z,98260.47
2023-02-18T02:50:03.947Z,98275.31
2023-02-18T02:51:20.575Z,98276.50
2023-02-18T02:52:31.102Z,98272.56
2023-02-18T02:53:36.177Z,98275.56
2023-02-18T02:54:39.268Z,98269.47
2023-02-18T02:55:42.306Z,98270.19
2023-02-18T02:56:45.587Z,98279.16
2023-02-18T02:57:55.245Z,98270.44
2023-02-18T02:59:06.753Z,98279.31
2023-02-18T03:00:12.262Z,98282.78
2023-02-18T03:01:54.736Z,98275.97
2023-02-18T03:03:32.004Z,98267.44
2023-02-18T03:04:45.036Z,98264.94
2023-02-18T03:06:11.733Z,98285.78
2023-02-18T03:07:29.753Z,98286.37
2023-02-18T03:08:36.941Z,98278.00
2023-02-18T03:09:46.034Z,98280.59
2023-02-18T03:11:06.374Z,98279.78
2023-02-18T03:12:24.061Z,98285.28
2023-02-18T03:13:54.414Z,98293.34
2023-02-18T03:15:18.760Z,98291.91
2023-02-18T03:16:42.821Z,98288.16
2023-02-18T03:18:29.452Z,98296.44
2023-02-18T03:19:50.378Z,98293.09
2023-02-18T03:21:04.922Z,98286.66
2023-02-18T03:22:16.779Z,98300.44
2023-02-18T03:23:27.487Z,98281.72
2023-02-18T03:24:37.041Z,98295.97
2023-02-18T03:25:40.757Z,98298.72
2023-02-18T03:26:55.582Z,98286.25
2023-02-18T03:28:05.246Z,98288.03
2023-02-18T03:29:11.327Z,98300.50
2023-02-18T03:30:24.149Z,98286.84
2023-02-18T03:31:30.131Z,98280.59
2023-02-18T03:32:35.861Z,98285.66
2023-02-18T03:33:45.872Z,98287.59
2023-02-18T03:34:56.348Z,98292.22
2023-02-18T03:35:59.662Z,98299.91
2023-02-18T03:37:03.349Z,98284.41
2023-02-18T03:38:21.546Z,98286.34
2023-02-18T03:39:27.920Z,98286.06
2023-02-18T03:40:31.953Z,98280.44
2023-02-18T03:41:35.832Z,98289.75
2023-02-18T03:42:38.964Z,98297.75
2023-02-18T03:43:52.907Z,98298.63
2023-02-18T03:44:56.232Z,98294.81
2023-02-18T03:46:00.082Z,98285.94
2023-02-18T03:47:03.641Z,98290.81
2023-02-18T03:48:07.243Z,98289.16
2023-02-18T03:49:12.703Z,98293.44
2023-02-18T03:50:15.831Z,98302.28
2023-02-18T03:51:19.875Z,98296.06
2023-02-18T03:52:22.951Z,98290.53
2023-02-18T03:53:25.954Z,98312.78
2023-02-18T03:54:28.983Z,98296.38
2023-02-18T03:55:32.233Z,98296.25
2023-02-18T03:56:36.741Z,98296.00
2023-02-18T03:57:39.839Z,98293.25
2023-02-18T03:58:42.996Z,98300.34
2023-02-18T03:59:46.266Z,98304.78
2023-02-18T04:00:49.280Z,98299.84
2023-02-18T04:01:52.400Z,98303.66
2023-02-18T04:02:55.457Z,98298.16
2023-02-18T04:03:58.515Z,98305.25
2023-02-18T04:05:01.576Z,98306.88
2023-02-18T04:06:05.100Z,98303.41
2023-02-18T04:07:08.256Z,98307.34
2023-02-18T04:08:11.329Z,98309.97
2023-02-18T04:09:14.515Z,98313.72
2023-02-18T04:10:17.815Z,98321.09
2023-02-18T04:11:21.015Z,98324.72
2023-02-18T04:12:24.416Z,98324.00
2023-02-18T04:13:28.116Z,98314.09
2023-02-18T04:14:31.014Z,98325.84
2023-02-18T04:15:35.392Z,98318.31
2023-02-18T04:16:38.501Z,98320.19
2023-02-18T04:17:41.656Z,98321.38
2023-02-18T04:18:44.935Z,98328.44
2023-02-18T04:19:47.950Z,98328.72
2023-02-18T04:20:51.070Z,98325.38
2023-02-18T04:21:54.157Z,98330.16
2023-02-18T04:22:57.096Z,98330.38
2023-02-18T04:24:01.276Z,98320.50
2023-02-18T04:25:04.376Z,98334.88
2023-02-18T04:26:07.621Z,98324.13
2023-02-18T04:27:10.895Z,98331.09
2023-02-18T04:28:17.027Z,98321.97
2023-02-18T04:29:20.170Z,98325.19
2023-02-18T04:30:23.509Z,98327.09
2023-02-18T04:31:26.654Z,98326.34
2023-02-18T04:32:29.827Z,98326.94
2023-02-18T04:33:33.105Z,98327.09
2023-02-18T04:34:36.858Z,98322.03
2023-02-18T04:35:42.721Z,98323.03
2023-02-18T04:36:45.823Z,98328.78
2023-02-18T04:37:48.893Z,98333.16
2023-02-18T04:38:51.936Z,98334.47
2023-02-18T04:39:54.872Z,98344.06
2023-02-18T04:40:58.721Z,98344.91
2023-02-18T04:42:01.829Z,98331.94
2023-02-18T04:43:04.905Z,98325.41
2023-02-18T04:44:07.865Z,98330.38
2023-02-18T04:45:11.117Z,98338.06
2023-02-18T04:46:14.684Z,98337.91
2023-02-18T04:47:18.059Z,98327.19
2023-02-18T04:48:21.144Z,98335.03
2023-02-18T04:49:24.225Z,98330.34
2023-02-18T04:50:27.671Z,98324.81
2023-02-18T04:51:30.792Z,98327.38
2023-02-18T04:52:33.824Z,98321.72
2023-02-18T04:53:36.918Z,98323.16
2023-02-18T04:54:40.113Z,98324.22
2023-02-18T04:55:43.181Z,98329.44
2023-02-18T04:56:46.372Z,98325.81
2023-02-18T04:57:49.637Z,98314.97
2023-02-18T04:58:52.817Z,98322.06
2023-02-18T04:59:55.881Z,98318.28
2023-02-18T05:01:03.898Z,98330.44
2023-02-18T05:02:07.239Z,98323.94
2023-02-18T05:03:10.417Z,98330.03
2023-02-18T05:04:13.427Z,98336.84
2023-02-18T05:05:16.978Z,98332.50
2023-02-18T05:06:20.039Z,98343.34
2023-02-18T05:07:23.080Z,98348.28
2023-02-18T05:08:26.188Z,98340.31
2023-02-18T05:09:29.256Z,98343.50
2023-02-18T05:10:32.267Z,98338.41
2023-02-18T05:11:35.162Z,98351.59
2023-02-18T05:12:38.038Z,98345.13
2023-02-18T05:13:41.064Z,98336.69
2023-02-18T05:14:44.015Z,98346.28
2023-02-18T05:15:46.920Z,98345.84
2023-02-18T05:16:49.840Z,98328.12
2023-02-18T05:17:52.922Z,98342.62
2023-02-18T05:18:56.235Z,98344.22
2023-02-18T05:19:59.659Z,98343.09
2023-02-18T05:21:02.727Z,98358.03
2023-02-18T05:22:05.924Z,98350.03
2023-02-18T05:23:08.970Z,98356.72
2023-02-18T05:24:12.134Z,98353.69
2023-02-18T05:25:15.119Z,98355.84
2023-02-18T05:26:18.097Z,98356.16
2023-02-18T05:27:21.323Z,98363.09
2023-02-18T05:28:24.900Z,98361.53
2023-02-18T05:29:28.029Z,98361.53
2023-02-18T05:30:31.133Z,98367.31
2023-02-18T05:31:34.556Z,98363.09
2023-02-18T05:32:37.554Z,98375.00
2023-02-18T05:33:40.523Z,98377.47
2023-02-18T05:34:43.831Z,98374.00
2023-02-18T05:35:46.991Z,98385.00
2023-02-18T05:36:50.913Z,98383.38
2023-02-18T05:37:54.093Z,98382.84
2023-02-18T05:38:57.234Z,98381.81
2023-02-18T05:40:00.352Z,98383.84
2023-02-18T05:41:03.658Z,98375.88
2023-02-18T05:42:06.762Z,98388.19
2023-02-18T05:43:09.746Z,98389.78
2023-02-18T05:44:31.154Z,98389.34
2023-02-18T05:45:34.314Z,98384.87
2023-02-18T05:46:37.438Z,98392.09
2023-02-18T05:47:40.866Z,98401.06
2023-02-18T05:48:46.218Z,98394.72
2023-02-18T05:49:49.293Z,98397.78
2023-02-18T05:50:54.959Z,98401.25
2023-02-18T05:51:58.646Z,98405.12
2023-02-18T05:53:01.866Z,98399.94
2023-02-18T05:54:05.450Z,98401.53
2023-02-18T05:55:08.744Z,98406.16
2023-02-18T05:56:12.085Z,98405.44
2023-02-18T05:57:16.488Z,98414.56
2023-02-18T05:58:19.631Z,98416.13
2023-02-18T05:59:23.531Z,98409.63
2023-02-18T06:00:26.499Z,98409.19
2023-02-18T06:01:30.179Z,98410.63
2023-02-18T06:02:33.090Z,98413.38
2023-02-18T06:03:36.206Z,98417.75
2023-02-18T06:04:40.832Z,98421.63
2023-02-18T06:05:43.991Z,98419.62
2023-02-18T06:06:46.944Z,98419.16
2023-02-18T06:07:50.042Z,98426.41
2023-02-18T06:08:52.941Z,98424.53
2023-02-18T06:09:55.882Z,98415.72
2023-02-18T06:10:58.826Z,98413.84
2023-02-18T06:12:01.772Z,98426.28
2023-02-18T06:13:04.779Z,98428.59
2023-02-18T06:14:08.862Z,98424.97
2023-02-18T06:15:11.855Z,98426.28
2023-02-18T06:16:14.933Z,98431.06
2023-02-18T06:17:19.053Z,98421.94
2023-02-18T06:18:22.756Z,98441.91
2023-02-18T06:19:25.746Z,98438.59
2023-02-18T06:20:28.851Z,98432.38
2023-02-18T06:21:31.972Z,98435.81
2023-02-18T06:22:35.153Z,98431.22
2023-02-18T06:23:38.253Z,98437.84
2023-02-18T06:24:41.820Z,98444.06
2023-02-18T06:25:44.954Z,98442.47
2023-02-18T06:26:47.925Z,98443.91
2023-02-18T06:27:51.098Z,98454.91
2023-02-18T06:28:55.065Z,98450.84
2023-02-18T06:29:58.049Z,98456.94
2023-02-18T06:31:01.161Z,98463.44
2023-02-18T06:32:04.815Z,98455.78
2023-02-18T06:33:07.794Z,98453.44
2023-02-18T06:34:10.724Z,98453.72
2023-02-18T06:35:13.744Z,98447.91
2023-02-18T06:36:17.260Z,98455.13
2023-02-18T06:37:20.393Z,98448.47
2023-02-18T06:38:23.635Z,98453.25
2023-02-18T06:39:26.525Z,98450.34
2023-02-18T06:40:29.745Z,98456.56
2023-02-18T06:41:33.201Z,98450.62
2023-02-18T06:42:36.195Z,98456.97
2023-02-18T06:43:39.533Z,98447.28
2023-02-18T06:44:42.887Z,98448.91
2023-02-18T06:45:46.371Z,98444.25
2023-02-18T06:46:49.978Z,98438.47
2023-02-18T06:47:53.333Z,98445.53
2023-02-18T06:48:56.395Z,98448.03
2023-02-18T06:49:59.701Z,98451.03
2023-02-18T06:51:03.904Z,98445.25
2023-02-18T06:52:07.016Z,98456.09
2023-02-18T06:53:10.203Z,98449.88
2023-02-18T06:54:13.231Z,98453.03
2023-02-18T06:55:16.199Z,98452.03
2023-02-18T06:56:19.427Z,98448.16
2023-02-18T06:57:22.592Z,98450.47
2023-02-18T06:58:26.723Z,98446.53
2023-02-18T06:59:29.822Z,98453.47
2023-02-18T07:00:33.426Z,98450.19
2023-02-18T07:01:37.004Z,98460.44
2023-02-18T07:02:39.953Z,98460.31
2023-02-18T07:03:42.990Z,98458.28
2023-02-18T07:04:46.639Z,98451.22
2023-02-18T07:05:49.817Z,98456.69
2023-02-18T07:06:52.728Z,98460.00
2023-02-18T07:07:57.012Z,98461.87
2023-02-18T07:09:00.106Z,98454.22
2023-02-18T07:10:04.089Z,98453.94
2023-02-18T07:11:07.618Z,98448.88
2023-02-18T07:12:10.849Z,98447.56
2023-02-18T07:13:14.496Z,98448.88
2023-02-18T07:14:17.508Z,98442.78
2023-02-18T07:15:24.561Z,98448.28
2023-02-18T07:16:27.711Z,98450.47
2023-02-18T07:17:30.885Z,98459.19
2023-02-18T07:18:34.324Z,98455.28
2023-02-18T07:19:37.264Z,98450.22
2023-02-18T07:20:40.771Z,98460.06
2023-02-18T07:21:44.077Z,98460.19
2023-02-18T07:22:48.209Z,98460.78
2023-02-18T07:23:51.307Z,98453.00
2023-02-18T07:24:55.269Z,98463.25
2023-02-18T07:26:12.521Z,98453.41
2023-02-18T07:27:15.498Z,98452.09
2023-02-18T07:28:18.565Z,98455.78
2023-02-18T07:29:21.633Z,98459.06
2023-02-18T07:30:24.965Z,98464.28
2023-02-18T07:31:28.201Z,98462.41
2023-02-18T07:32:31.871Z,98459.06
2023-02-18T07:33:35.038Z,98462.09
2023-02-18T07:34:38.548Z,98466.16
2023-02-18T07:35:41.580Z,98453.13
2023-02-18T07:36:44.481Z,98457.19
2023-02-18T07:37:49.214Z,98460.97
2023-02-18T07:38:52.189Z,98456.31
2023-02-18T07:39:55.394Z,98459.78
2023-02-18T07:40:58.822Z,98455.91
2023-02-18T07:42:03.434Z,98457.78
2023-02-18T07:43:06.487Z,98455.47
2023-02-18T07:44:09.588Z,98458.09
2023-02-18T07:45:13.830Z,98452.19
2023-02-18T07:46:17.644Z,98449.25
2023-02-18T07:47:20.863Z,98457.69
2023-02-18T07:48:24.068Z,98450.28
2023-02-18T07:49:27.115Z,98455.38
2023-02-18T07:50:35.298Z,98454.19
2023-02-18T07:51:40.731Z,98453.47
2023-02-18T07:52:44.085Z,98460.00
2023-02-18T07:53:47.454Z,98453.19
2023-02-18T07:54:50.504Z,98452.47
2023-02-18T07:55:53.673Z,98452.47
2023-02-18T07:56:56.652Z,98451.59
2023-02-18T07:58:01.260Z,98451.59
2023-02-18T07:59:04.280Z,98447.41
2023-02-18T08:00:08.213Z,98446.97
2023-02-18T08:01:15.158Z,98453.34
2023-02-18T08:02:23.910Z,98456.69
2023-02-18T08:03:29.985Z,98451.91
2023-02-18T08:04:33.050Z,98445.69
2023-02-18T08:05:35.994Z,98459.56
2023-02-18T08:06:42.796Z,98462.03
2023-02-18T08:07:45.951Z,98456.38
2023-02-18T08:08:49.369Z,98457.06
2023-02-18T08:09:52.566Z,98454.47
2023-02-18T08:11:01.001Z,98460.28
2023-02-18T08:12:04.327Z,98451.13
2023-02-18T08:13:07.386Z,98452.44
2023-02-18T08:14:10.340Z,98454.63
2023-02-18T08:15:13.981Z,98445.34
2023-02-18T08:16:19.478Z,98448.78
2023-02-18T08:17:22.462Z,98456.47
2023-02-18T08:18:26.635Z,98457.59
2023-02-18T08:19:29.680Z,98458.19
2023-02-18T08:20:37.432Z,98459.91
2023-02-18T08:21:41.037Z,98459.47
2023-02-18T08:22:44.152Z,98457.28
2023-02-18T08:23:47.902Z,98466.25
2023-02-18T08:24:50.818Z,98458.44
2023-02-18T08:25:54.964Z,98464.06
2023-02-18T08:27:01.202Z,98466.66
2023-02-18T08:28:05.244Z,98468.41
2023-02-18T08:29:08.476Z,98460.16
2023-02-18T08:30:11.931Z,98462.50
2023-02-18T08:31:25.333Z,98468.00
2023-02-18T08:32:29.805Z,98456.97
2023-02-18T08:33:33.115Z,98456.41
2023-02-18T08:34:36.028Z,98452.63
2023-02-18T08:35:39.522Z,98449.88
2023-02-18T08:36:42.637Z,98451.34
2023-02-18T08:37:51.943Z,98455.38
2023-02-18T08:38:56.384Z,98460.34
2023-02-18T08:39:59.645Z,98463.22
2023-02-18T08:41:04.574Z,98456.25
2023-02-18T08:42:07.684Z,98460.47
2023-02-18T08:43:11.184Z,98456.97
2023-02-18T08:44:14.487Z,98461.19
2023-02-18T08:45:17.527Z,98455.94
2023-02-18T08:46:25.429Z,98455.81
2023-02-18T08:48:18.659Z,98458.25
2023-02-18T08:49:01.437Z,98462.31
2023-02-18T08:50:05.984Z,98454.03
2023-02-18T08:51:21.617Z,98444.47
2023-02-18T08:52:24.918Z,98448.50
2023-02-18T08:53:28.073Z,98451.97
2023-02-18T08:54:31.925Z,98441.84
2023-02-18T08:55:35.297Z,98449.62
2023-02-18T08:56:38.885Z,98457.84
2023-02-18T08:57:41.990Z,98461.00
2023-02-18T08:58:45.564Z,98456.94
2023-02-18T08:59:48.621Z,98457.97
2023-02-18T09:00:51.852Z,98452.66
2023-02-18T09:01:54.968Z,98460.81
2023-02-18T09:02:58.121Z,98466.75
2023-02-18T09:04:01.420Z,98459.09
2023-02-18T09:05:04.616Z,98460.25
2023-02-18T09:06:07.705Z,98455.78
2023-02-18T09:07:11.978Z,98456.50
2023-02-18T09:08:15.496Z,98452.97
2023-02-18T09:09:18.644Z,98458.22
2023-02-18T09:10:23.450Z,98450.72
2023-02-18T09:11:26.653Z,98457.84
2023-02-18T09:12:29.826Z,98449.88
2023-02-18T09:13:34.260Z,98450.47
2023-02-18T09:14:37.157Z,98449.16
2023-02-18T09:15:40.135Z,98452.50
2023-02-18T09:16:43.486Z,98454.81
2023-02-18T09:17:46.558Z,98456.69
2023-02-18T09:18:50.133Z,98455.97
2023-02-18T09:19:55.389Z,98447.72
2023-02-18T09:21:00.530Z,98457.41
2023-02-18T09:22:03.595Z,98458.16
2023-02-18T09:23:06.647Z,98451.19
2023-02-18T09:24:10.174Z,98440.59
2023-02-18T09:25:13.279Z,98443.94
2023-02-18T09:26:19.151Z,98436.50
2023-02-18T09:27:22.987Z,98439.44
2023-02-18T09:28:26.314Z,98431.00
2023-02-18T09:29:29.465Z,98440.16
2023-02-18T09:30:32.428Z,98439.44
2023-02-18T09:31:35.805Z,98437.22
2023-02-18T09:32:38.931Z,98438.34
2023-02-18T09:33:46.007Z,98441.19
2023-02-18T09:34:49.501Z,98437.66
2023-02-18T09:35:52.443Z,98443.31
2023-02-18T09:36:55.462Z,98436.88
2023-02-18T09:37:58.452Z,98443.72
2023-02-18T09:39:01.956Z,98438.78
2023-02-18T09:40:05.858Z,98438.13
2023-02-18T09:41:19.289Z,98438.84
2023-02-18T09:42:30.973Z,98435.50
2023-02-18T09:43:45.124Z,98434.91
2023-02-18T09:45:01.487Z,98431.56
2023-02-18T09:46:10.253Z,98432.94
2023-02-18T09:47:39.616Z,98435.84
2023-02-18T09:48:45.559Z,98423.50
2023-02-18T09:49:53.469Z,98420.75
2023-02-18T09:50:57.404Z,98435.38
2023-02-18T09:52:13.910Z,98439.13
2023-02-18T09:53:17.669Z,98433.44
2023-02-18T09:54:21.310Z,98436.44
2023-02-18T09:55:30.204Z,98446.00
2023-02-18T09:56:39.670Z,98421.91
2023-02-18T09:57:51.642Z,98425.53
2023-02-18T09:58:57.546Z,98431.91
2023-02-18T10:00:13.653Z,98435.91
2023-02-18T10:01:34.015Z,98441.06
2023-02-18T10:02:38.933Z,98432.78
2023-02-18T10:03:44.086Z,98427.03
2023-02-18T10:04:52.530Z,98422.75
2023-02-18T10:06:04.845Z,98419.53
2023-02-18T10:07:20.009Z,98431.53
2023-02-18T10:08:46.562Z,98432.19
2023-02-18T10:09:52.751Z,98434.75
2023-02-18T10:10:56.431Z,98428.53
2023-02-18T10:12:17.810Z,98433.59
2023-02-18T10:13:25.077Z,98431.44
2023-02-18T10:14:28.594Z,98429.75
2023-02-18T10:15:33.744Z,98425.91
2023-02-18T10:16:36.892Z,98430.22
2023-02-18T10:17:39.991Z,98419.41
2023-02-18T10:18:49.415Z,98422.06
2023-02-18T10:19:54.888Z,98432.88
2023-02-18T10:21:14.665Z,98413.06
2023-02-18T10:22:20.572Z,98417.03
2023-02-18T10:23:25.259Z,98421.81
2023-02-18T10:24:34.049Z,98428.22
2023-02-18T10:25:44.939Z,98420.03
2023-02-18T10:26:48.750Z,98419.69
2023-02-18T10:27:54.051Z,98419.31
2023-02-18T10:28:58.036Z,98427.34
2023-02-18T10:30:27.224Z,98416.53
2023-02-18T10:31:44.434Z,98417.75
2023-02-18T10:32:48.946Z,98425.41
2023-02-18T10:33:58.734Z,98427.00
2023-02-18T10:35:21.546Z,98409.41
2023-02-18T10:36:27.569Z,98406.75
2023-02-18T10:37:48.960Z,98413.38
2023-02-18T10:39:16.901Z,98414.59
2023-02-18T10:40:43.835Z,98407.50
2023-02-18T10:41:59.053Z,98406.91
2023-02-18T10:43:20.885Z,98413.53
2023-02-18T10:44:42.068Z,98402.69
2023-02-18T10:45:55.053Z,98398.84
2023-02-18T10:47:10.394Z,98381.44
2023-02-18T10:48:54.027Z,98387.78
2023-02-18T10:50:01.345Z,98391.47
2023-02-18T10:51:16.623Z,98385.69
2023-02-18T10:52:20.161Z,98396.25
2023-02-18T10:53:40.104Z,98394.22
2023-02-18T10:54:51.305Z,98389.72
2023-02-18T10:55:56.944Z,98386.44
2023-02-18T10:57:01.045Z,98388.44
2023-02-18T10:58:04.852Z,98388.56
2023-02-18T10:59:25.978Z,98383.66
2023-02-18T11:00:39.207Z,98398.53
2023-02-18T11:01:44.184Z,98387.63
2023-02-18T11:02:48.431Z,98388.72
2023-02-18T11:04:04.239Z,98384.19
2023-02-18T11:05:28.065Z,98392.25
2023-02-18T11:06:40.337Z,98387.47
2023-02-18T11:07:49.166Z,98388.06
2023-02-18T11:08:57.076Z,98390.72
2023-02-18T11:10:10.520Z,98386.16
2023-02-18T11:11:23.643Z,98386.63
2023-02-18T11:12:30.808Z,98379.91
2023-02-18T11:13:35.258Z,98375.22
2023-02-18T11:14:50.600Z,98378.09
2023-02-18T11:16:04.023Z,98377.75
2023-02-18T11:17:17.837Z,98373.53
2023-02-18T11:18:26.553Z,98368.25
2023-02-18T11:19:39.018Z,98365.59
2023-02-18T11:20:42.566Z,98382.78
2023-02-18T11:21:45.866Z,98379.41
2023-02-18T11:22:50.031Z,98362.13
2023-02-18T11:23:55.245Z,98359.12
2023-02-18T11:25:01.194Z,98355.78
2023-02-18T11:26:07.764Z,98354.09
2023-02-18T11:27:16.104Z,98358.41
2023-02-18T11:28:19.224Z,98359.34
2023-02-18T11:29:25.882Z,98350.84
2023-02-18T11:30:39.867Z,98361.38
2023-02-18T11:31:47.689Z,98342.28
2023-02-18T11:32:55.826Z,98349.13
2023-02-18T11:34:01.861Z,98348.63
2023-02-18T11:35:05.817Z,98353.91
2023-02-18T11:36:20.343Z,98354.22
2023-02-18T11:37:24.668Z,98343.31
2023-02-18T11:38:45.453Z,98340.19
2023-02-18T11:39:54.901Z,98342.00
2023-02-18T11:41:04.129Z,98335.03
2023-02-18T11:42:07.537Z,98328.28
2023-02-18T11:43:16.865Z,98327.69
2023-02-18T11:44:31.115Z,98328.78
2023-02-18T11:45:35.447Z,98322.03
2023-02-18T11:46:38.494Z,98328.41
2023-02-18T11:47:41.440Z,98338.75
2023-02-18T11:48:45.153Z,98321.72
2023-02-18T11:50:09.846Z,98318.72
2023-02-18T11:51:36.900Z,98316.28
2023-02-18T11:52:43.602Z,98330.44
2023-02-18T11:54:04.711Z,98321.50
2023-02-18T11:55:26.176Z,98313.75
2023-02-18T11:56:35.881Z,98308.75
2023-02-18T11:57:41.593Z,98305.06
2023-02-18T11:58:48.061Z,98308.44
2023-02-18T11:59:51.048Z,98299.94
2023-02-18T12:01:01.505Z,98300.16
2023-02-18T12:02:10.532Z,98295.34
2023-02-18T12:03:27.534Z,98303.63
2023-02-18T12:04:39.018Z,98293.34
2023-02-18T12:05:43.289Z,98296.81
2023-02-18T12:07:04.878Z,98296.72
2023-02-18T12:08:13.814Z,98284.22
2023-02-18T12:09:19.888Z,98283.72
2023-02-18T12:10:29.294Z,98289.59
2023-02-18T12:11:41.770Z,98279.59
2023-02-18T12:12:55.482Z,98276.91
2023-02-18T12:13:59.583Z,98272.94
2023-02-18T12:15:03.172Z,98274.38
2023-02-18T12:16:43.990Z,98273.84
2023-02-18T12:18:04.655Z,98266.50
2023-02-18T12:19:23.840Z,98259.84
2023-02-18T12:20:47.737Z,98282.38
2023-02-18T12:21:56.485Z,98271.84
2023-02-18T12:23:02.612Z,98257.91
2023-02-18T12:24:37.344Z,98256.81
2023-02-18T12:25:51.671Z,98264.06
2023-02-18T12:27:29.374Z,98263.00
2023-02-18T12:29:00.504Z,98257.25
2023-02-18T12:30:42.315Z,98256.03
2023-02-18T12:31:45.769Z,98255.47
2023-02-18T12:33:06.516Z,98254.84
2023-02-18T12:34:35.972Z,98256.06
2023-02-18T12:35:52.708Z,98263.03
2023-02-18T12:37:08.299Z,98256.41
2023-02-18T12:38:30.360Z,98258.25
2023-02-18T12:39:45.304Z,98265.47
2023-02-18T12:41:20.847Z,98241.78
2023-02-18T12:42:50.339Z,98238.63
2023-02-18T12:44:02.121Z,98247.66
2023-02-18T12:45:35.861Z,98259.09
2023-02-18T12:46:55.613Z,98242.28
2023-02-18T12:48:01.662Z,98250.91
2023-02-18T12:49:47.032Z,98225.50
2023-02-18T12:51:08.497Z,98246.31
2023-02-18T12:53:19.232Z,98240.87
2023-02-18T12:54:34.548Z,98237.12
2023-02-18T12:55:55.939Z,98243.88
2023-02-18T12:57:15.088Z,98239.44
2023-02-18T12:58:54.721Z,98232.75
2023-02-18T13:00:11.868Z,98239.91
2023-02-18T13:01:38.921Z,98227.81
2023-02-18T13:02:54.349Z,98227.69
2023-02-18T13:04:24.648Z,98227.47
2023-02-18T13:05:44.903Z,98236.88
2023-02-18T13:07:15.248Z,98227.75
2023-02-18T13:08:55.959Z,98220.69
2023-02-18T13:10:32.020Z,98211.22
2023-02-18T13:11:40.712Z,98204.69
2023-02-18T13:12:48.922Z,98210.66
2023-02-18T13:14:05.186Z,98208.94
2023-02-18T13:15:28.882Z,98199.75
2023-02-18T13:16:34.229Z,98199.66
2023-02-18T13:17:39.911Z,98204.31
2023-02-18T13:19:04.199Z,98208.69